Time;durP1;ratioP1;P1;durP2;ratioP2;P2;SDS_P1;SDS_P2;PMS_P1;PMS_P2;Temp;Humidity;BMP_temperature;BMP_pressure;BME280_temperature;BME280_humidity;BME280_pressure;Samples;Min_cycle;Max_cycle;Signal;HPM_P1;HPM_P2
2021/05/03 00:02:04;;;;;;;19.77;8.25;;;;;;;5.15;92.19;101012.78;5017539;28;20398;-79
2021/05/03 00:04:30;;;;;;;14.57;7.80;;;;;;;5.11;91.48;101013.91;5018906;28;20030;-80
2021/05/03 00:06:55;;;;;;;14.30;6.82;;;;;;;5.16;92.91;101014.50;5017842;28;20053;-79
2021/05/03 00:09:21;;;;;;;16.85;8.82;;;;;;;5.17;92.74;101010.88;5015834;28;20029;-79
2021/05/03 00:11:47;;;;;;;15.43;8.13;;;;;;;5.20;92.91;101009.81;5014498;28;20109;-79
2021/05/03 00:14:12;;;;;;;22.15;8.13;;;;;;;5.16;91.45;101010.97;4996635;28;20026;-79
2021/05/03 00:16:38;;;;;;;16.52;6.80;;;;;;;5.16;91.80;101009.16;5014260;28;20062;-79
2021/05/03 00:19:03;;;;;;;14.95;6.50;;;;;;;5.16;90.83;101005.63;4997960;28;20068;-79
2021/05/03 00:21:29;;;;;;;8.65;6.13;;;;;;;5.10;92.10;101011.34;5015826;28;20056;-79
2021/05/03 00:23:55;;;;;;;18.65;6.65;;;;;;;5.11;91.39;101015.72;5017911;28;20030;-80
2021/05/03 00:26:20;;;;;;;12.93;6.32;;;;;;;5.11;91.40;101015.72;5017078;28;20546;-79
2021/05/03 00:28:45;;;;;;;13.18;5.32;;;;;;;5.07;90.58;101010.56;4997448;28;20542;-79
2021/05/03 00:31:11;;;;;;;18.77;6.63;;;;;;;5.05;91.35;101011.63;5014050;28;20049;-79
2021/05/03 00:33:36;;;;;;;14.52;6.15;;;;;;;5.03;90.25;101024.19;4994954;28;20026;-79
2021/05/03 00:36:02;;;;;;;12.38;5.88;;;;;;;5.02;92.23;101017.13;5014583;28;20037;-80
2021/05/03 00:38:27;;;;;;;10.82;5.53;;;;;;;5.02;92.41;101015.34;4996334;28;20079;-79
2021/05/03 00:40:53;;;;;;;16.73;5.65;;;;;;;5.02;93.06;101020.69;5001876;28;20059;-79
2021/05/03 00:43:20;;;;;;;16.75;5.97;;;;;;;5.01;91.26;101018.94;5017331;28;20068;-79
2021/05/03 00:45:50;;;;;;;17.60;5.90;;;;;;;5.03;92.74;101022.38;4996466;28;20092;-80
2021/05/03 00:48:16;;;;;;;34.85;6.25;;;;;;;5.06;92.66;101026.69;4995632;28;20053;-79
2021/05/03 00:50:43;;;;;;;19.83;5.60;;;;;;;5.05;92.27;101024.94;5013916;28;20454;-80
2021/05/03 00:53:09;;;;;;;19.15;6.28;;;;;;;5.03;90.92;101038.38;4997030;28;20058;-79
2021/05/03 00:55:35;;;;;;;15.23;6.32;;;;;;;5.06;93.02;101022.19;5013687;28;20127;-79
2021/05/03 00:58:03;;;;;;;16.05;5.57;;;;;;;5.07;91.66;101023.91;4997753;28;20071;-80
2021/05/03 01:00:29;;;;;;;15.25;5.13;;;;;;;5.07;91.76;101031.91;4998648;28;20032;-79
2021/05/03 01:02:55;;;;;;;19.60;5.40;;;;;;;5.11;91.30;101034.38;4993639;28;20125;-79
2021/05/03 01:05:21;;;;;;;9.23;4.15;;;;;;;5.09;90.05;101050.47;4985353;28;20032;-79
2021/05/03 01:07:48;;;;;;;9.93;3.05;;;;;;;5.12;87.39;101036.13;5012749;28;20088;-79
2021/05/03 01:10:14;;;;;;;9.65;3.20;;;;;;;4.90;87.69;101044.53;5014570;28;20049;-79
2021/05/03 01:12:40;;;;;;;10.10;3.42;;;;;;;4.87;89.76;101050.94;5014797;28;20026;-79
2021/05/03 01:15:07;;;;;;;5.60;3.20;;;;;;;4.76;88.95;101043.56;5013146;28;20112;-79
2021/05/03 01:17:34;;;;;;;9.05;3.20;;;;;;;4.76;89.46;101040.88;4994495;28;20033;-79
2021/05/03 01:20:11;;;;;;;5.53;3.60;;;;;;;4.77;92.01;101036.41;5016667;28;20030;-79
2021/05/03 01:22:36;;;;;;;7.45;3.55;;;;;;;4.73;91.32;101037.56;5016181;28;20048;-79
2021/05/03 01:25:03;;;;;;;9.90;3.80;;;;;;;4.74;92.28;101031.25;4995975;28;20026;-79
2021/05/03 01:27:28;;;;;;;9.77;4.00;;;;;;;4.80;90.98;101034.41;5014489;28;20451;-80
2021/05/03 01:29:54;;;;;;;14.27;3.60;;;;;;;4.76;91.74;101038.22;5014385;28;20038;-79
2021/05/03 01:32:19;;;;;;;13.40;4.45;;;;;;;4.76;92.36;101040.03;4995874;28;20030;-80
2021/05/03 01:34:45;;;;;;;9.10;3.85;;;;;;;4.74;91.73;101044.59;5012323;28;20037;-79
2021/05/03 01:37:14;;;;;;;13.93;3.45;;;;;;;4.71;89.76;101040.28;5012660;28;20025;-79
2021/05/03 01:39:40;;;;;;;14.15;4.38;;;;;;;4.77;90.69;101041.75;5013149;28;20038;-79
2021/05/03 01:42:05;;;;;;;13.43;3.90;;;;;;;4.78;88.85;101043.47;5016426;28;20038;-80
2021/05/03 01:44:30;;;;;;;17.02;3.20;;;;;;;4.79;87.67;101047.84;4997177;28;20102;-79
2021/05/03 01:46:56;;;;;;;14.65;3.55;;;;;;;4.77;87.94;101055.91;4996292;28;20034;-79
2021/05/03 01:49:22;;;;;;;8.90;3.13;;;;;;;4.70;87.86;101045.72;5013528;28;20037;-79
2021/05/03 01:51:48;;;;;;;8.80;3.13;;;;;;;4.62;87.29;101059.47;5013446;28;20029;-79
2021/05/03 01:54:14;;;;;;;9.95;2.97;;;;;;;4.59;87.46;101065.88;5012507;28;20089;-79
2021/05/03 01:56:40;;;;;;;11.85;3.30;;;;;;;4.58;89.55;101053.47;4993246;28;20104;-79
2021/05/03 01:59:06;;;;;;;9.10;3.80;;;;;;;4.57;88.47;101061.56;4995364;28;20037;-79
2021/05/03 02:01:32;;;;;;;10.40;3.45;;;;;;;4.54;90.24;101062.63;5000621;28;20063;-80
2021/05/03 02:03:58;;;;;;;10.30;3.47;;;;;;;4.51;90.78;101064.59;5015470;28;20034;-79
2021/05/03 02:06:23;;;;;;;10.90;4.05;;;;;;;4.47;91.41;101082.56;5014029;28;20051;-79
2021/05/03 02:08:49;;;;;;;19.50;4.57;;;;;;;4.48;92.14;101073.63;5013617;28;20061;-79
2021/05/03 02:11:15;;;;;;;16.85;4.68;;;;;;;4.47;92.75;101066.59;4994564;28;20041;-79
2021/05/03 02:13:40;;;;;;;12.00;4.03;;;;;;;4.43;92.21;101073.00;5011107;28;20113;-79
2021/05/03 02:16:06;;;;;;;11.43;3.45;;;;;;;4.44;91.59;101080.09;5011135;28;20064;-79
2021/05/03 02:18:31;;;;;;;13.65;3.50;;;;;;;4.42;91.14;101076.63;5013750;28;20030;-79
2021/05/03 02:20:57;;;;;;;9.30;2.90;;;;;;;4.38;90.10;101075.09;5019725;28;20033;-79
2021/05/03 02:23:22;;;;;;;13.00;3.00;;;;;;;4.36;88.53;101079.66;5004649;28;20038;-79
2021/05/03 02:25:48;;;;;;;6.13;2.50;;;;;;;4.35;89.53;101072.63;5020598;28;20030;-79
2021/05/03 02:28:13;;;;;;;11.27;3.45;;;;;;;4.36;89.14;101079.66;5001496;28;20037;-79
2021/05/03 02:30:39;;;;;;;13.00;2.75;;;;;;;4.33;89.78;101078.00;4999852;28;20474;-79
2021/05/03 02:33:06;;;;;;;6.90;2.03;;;;;;;4.33;89.09;101078.00;5017964;28;20423;-79
2021/05/03 02:35:33;;;;;;;9.18;3.58;;;;;;;4.30;88.72;101082.66;5017079;28;20041;-79
2021/05/03 02:38:01;;;;;;;3.80;2.25;;;;;;;4.32;87.50;101086.97;5001335;28;20034;-79
2021/05/03 02:40:27;;;;;;;5.28;2.70;;;;;;;4.22;90.23;101085.75;5020508;28;20049;-79
2021/05/03 02:42:56;;;;;;;6.10;2.88;;;;;;;4.19;90.59;101083.25;5021353;28;20036;-79
2021/05/03 02:45:23;;;;;;;8.13;3.10;;;;;;;4.14;88.93;101094.19;5019903;28;20035;-79
2021/05/03 02:47:48;;;;;;;10.07;3.28;;;;;;;4.12;88.27;101088.06;5003166;28;20079;-79
2021/05/03 02:50:15;;;;;;;7.60;3.47;;;;;;;4.09;88.86;101085.56;5001748;28;20417;-79
2021/05/03 02:52:41;;;;;;;8.90;3.85;;;;;;;4.10;90.88;101074.00;4999582;28;20041;-78
2021/05/03 02:55:11;;;;;;;12.60;3.22;;;;;;;4.13;90.82;101078.28;5017371;28;20038;-79
2021/05/03 02:57:40;;;;;;;13.55;4.03;;;;;;;4.12;87.74;101071.25;5019025;28;20093;-79
2021/05/03 03:00:08;;;;;;;5.28;3.00;;;;;;;4.09;89.26;101066.94;5000756;28;20049;-79
2021/05/03 03:02:34;;;;;;;13.52;2.90;;;;;;;4.11;90.26;101070.38;5006673;28;20053;-79
2021/05/03 03:04:59;;;;;;;8.15;2.92;;;;;;;4.18;88.68;101065.56;5005063;28;20378;-79
2021/05/03 03:07:24;;;;;;;8.40;2.47;;;;;;;4.11;87.58;101064.22;5020840;28;20030;-79
2021/05/03 03:09:50;;;;;;;10.23;2.72;;;;;;;4.09;87.56;101071.41;5018453;28;20115;-79
2021/05/03 03:12:15;;;;;;;6.85;2.25;;;;;;;4.14;88.21;101077.34;5017775;28;20029;-79
2021/05/03 03:14:42;;;;;;;8.75;2.72;;;;;;;4.15;86.40;101068.41;5017357;28;20030;-79
2021/05/03 03:17:08;;;;;;;7.47;3.28;;;;;;;4.12;87.19;101071.25;5019500;28;20029;-79
2021/05/03 03:19:38;;;;;;;6.05;2.35;;;;;;;4.13;85.58;101075.63;5001061;28;20030;-79
2021/05/03 03:22:05;;;;;;;8.48;2.50;;;;;;;4.11;86.10;101075.72;5003308;28;20030;-79
2021/05/03 03:24:30;;;;;;;11.10;2.60;;;;;;;4.13;85.70;101081.81;5022621;28;20439;-79
2021/05/03 03:26:55;;;;;;;5.97;2.95;;;;;;;4.18;84.76;101081.53;5020191;28;20085;-79
2021/05/03 03:29:21;;;;;;;11.52;2.40;;;;;;;4.18;86.01;101078.03;5018351;28;20032;-79
2021/05/03 03:31:46;;;;;;;6.22;2.20;;;;;;;4.18;85.00;101075.38;4995439;28;20422;-79
2021/05/03 03:34:11;;;;;;;7.38;2.13;;;;;;;4.20;84.26;101084.13;5014268;28;20026;-79
2021/05/03 03:36:37;;;;;;;6.72;2.00;;;;;;;4.18;84.65;101081.53;5016040;28;20072;-79
2021/05/03 03:39:05;;;;;;;8.13;2.35;;;;;;;4.22;83.37;101085.75;5017017;28;20037;-80
2021/05/03 03:41:31;;;;;;;5.55;2.80;;;;;;;4.22;83.78;101090.22;5017807;28;20036;-80
2021/05/03 03:43:56;;;;;;;10.10;1.90;;;;;;;4.19;85.19;101091.25;5018862;28;20030;-80
2021/05/03 03:46:22;;;;;;;5.43;2.35;;;;;;;4.19;85.47;101091.25;5019416;28;20044;-79
2021/05/03 03:48:48;;;;;;;8.70;2.22;;;;;;;4.21;84.42;101100.00;5017302;28;20564;-79
2021/05/03 03:51:13;;;;;;;4.70;2.20;;;;;;;4.21;84.62;101083.19;4997097;28;20482;-79
2021/05/03 03:53:38;;;;;;;5.13;1.85;;;;;;;4.19;84.35;101098.38;5014139;28;20030;-79
2021/05/03 03:56:04;;;;;;;6.18;2.28;;;;;;;4.16;84.42;101083.44;5014750;28;20124;-79
2021/05/03 03:58:30;;;;;;;8.38;2.13;;;;;;;4.18;86.51;101084.22;4998173;28;20082;-79
2021/05/03 04:00:55;;;;;;;3.90;2.05;;;;;;;4.19;84.67;101082.41;5015536;28;20032;-79
2021/05/03 04:03:22;;;;;;;6.40;2.30;;;;;;;4.24;84.95;101089.19;5016291;28;20026;-79
2021/05/03 04:06:04;;;;;;;5.43;1.77;;;;;;;4.20;83.14;101095.63;5018801;28;20049;-80
2021/05/03 04:08:45;;;;;;;7.25;1.73;;;;;;;4.18;84.29;101086.88;5016909;28;20049;-79
2021/05/03 04:26:59;;;;;;;8.38;2.08;;;;;;;4.19;83.03;101101.03;5008976;28;20204;-80
2021/05/03 04:29:24;;;;;;;4.63;1.50;;;;;;;4.13;81.73;101096.91;5014951;28;20061;-79
2021/05/03 04:31:50;;;;;;;8.07;2.53;;;;;;;4.15;83.46;101106.53;5015043;28;20068;-79
2021/05/03 04:34:15;;;;;;;8.35;1.85;;;;;;;4.18;81.83;101104.66;4997791;28;20576;-79
2021/05/03 04:36:40;;;;;;;2.40;1.70;;;;;;;4.18;82.71;101110.81;5014873;28;20060;-79
2021/05/03 04:39:06;;;;;;;5.35;1.88;;;;;;;4.23;82.88;101113.25;4995880;28;20432;-79
2021/05/03 04:41:31;;;;;;;2.20;1.90;;;;;;;4.29;84.44;101119.09;5013167;28;20498;-79
2021/05/03 04:43:57;;;;;;;6.65;2.25;;;;;;;4.36;84.02;101117.78;4994368;28;20059;-79
2021/05/03 04:46:22;;;;;;;3.63;1.63;;;;;;;4.44;82.08;101122.69;5011430;28;20026;-79
2021/05/03 04:48:49;;;;;;;3.30;1.75;;;;;;;4.46;82.62;101128.75;5025482;28;20441;-78
2021/05/03 04:51:15;;;;;;;2.00;1.83;;;;;;;4.49;83.86;101133.91;4997211;28;20146;-79
2021/05/03 04:53:40;;;;;;;4.22;2.10;;;;;;;4.49;84.28;101130.41;5013957;28;20492;-79
2021/05/03 04:56:05;;;;;;;6.28;2.28;;;;;;;4.45;85.19;101136.84;5021583;28;20370;-79
2021/05/03 04:58:30;;;;;;;7.53;2.65;;;;;;;4.28;87.41;101143.13;5010557;28;20084;-79
2021/05/03 05:00:56;;;;;;;6.30;2.25;;;;;;;4.23;88.40;101139.88;5013707;28;20375;-79
2021/05/03 05:03:22;;;;;;;5.60;2.35;;;;;;;4.14;88.20;101139.44;5005137;28;20482;-79
2021/05/03 05:05:50;;;;;;;2.65;2.40;;;;;;;4.10;89.43;101137.88;5013991;28;20048;-79
2021/05/03 05:08:15;;;;;;;2.95;2.13;;;;;;;4.09;89.40;101138.81;5014086;28;20429;-79
2021/05/03 05:10:41;;;;;;;4.93;2.17;;;;;;;4.09;88.72;101146.78;5013335;28;20030;-79
2021/05/03 05:13:06;;;;;;;7.50;2.58;;;;;;;4.05;88.72;101158.56;4996601;28;20057;-81
2021/05/03 05:15:31;;;;;;;2.85;2.60;;;;;;;4.00;88.67;101149.09;5028360;28;20037;-81
2021/05/03 05:17:57;;;;;;;2.85;2.33;;;;;;;4.01;88.35;101158.78;5018073;28;20034;-82
2021/05/03 05:20:24;;;;;;;13.25;3.15;;;;;;;4.03;90.10;101146.28;5002608;28;20036;-82
2021/05/03 05:22:50;;;;;;;3.80;2.53;;;;;;;4.06;89.01;101144.31;5011932;28;20505;-81
2021/05/03 05:25:15;;;;;;;6.65;2.65;;;;;;;4.03;89.53;101144.47;4988412;28;20038;-81
2021/05/03 05:27:41;;;;;;;4.93;2.88;;;;;;;4.08;89.63;101141.56;4991804;28;20026;-82
2021/05/03 05:30:07;;;;;;;2.95;2.35;;;;;;;4.08;89.40;101139.75;5007267;28;20596;-82
2021/05/03 05:32:33;;;;;;;3.22;2.67;;;;;;;4.04;88.97;101140.00;4998958;28;20124;-83
2021/05/03 05:34:58;;;;;;;6.38;2.90;;;;;;;4.05;87.40;101142.59;4995908;28;20101;-82
2021/05/03 05:37:24;;;;;;;6.43;3.58;;;;;;;4.14;89.71;101144.75;5012844;28;20139;-81
2021/05/03 05:39:49;;;;;;;5.50;3.38;;;;;;;4.06;87.78;101136.31;5010502;28;20080;-82
2021/05/03 05:42:15;;;;;;;4.00;3.05;;;;;;;4.00;89.84;101143.78;5013979;28;20033;-82
2021/05/03 05:44:40;;;;;;;5.63;2.55;;;;;;;3.84;88.31;101139.28;5024773;28;20030;-82
2021/05/03 05:47:06;;;;;;;7.97;2.85;;;;;;;3.84;88.60;101144.63;5011467;28;20133;-83
2021/05/03 05:49:31;;;;;;;4.72;3.08;;;;;;;4.06;89.69;101151.44;4999225;28;20536;-82
2021/05/03 05:51:56;;;;;;;6.80;3.08;;;;;;;4.22;90.07;101140.78;5017161;28;20026;-81
2021/05/03 05:54:22;;;;;;;7.38;2.63;;;;;;;4.24;88.58;101146.91;5000059;28;20022;-82
2021/05/03 05:56:47;;;;;;;8.05;3.15;;;;;;;4.33;86.49;101151.72;4994298;28;20108;-81
2021/05/03 05:59:14;;;;;;;3.88;3.15;;;;;;;4.50;87.64;101156.06;5023919;28;20057;-81
2021/05/03 06:01:39;;;;;;;6.18;3.88;;;;;;;4.38;87.26;101147.00;5013395;28;20034;-82
2021/05/03 06:04:05;;;;;;;5.90;2.78;;;;;;;4.51;85.53;101155.16;5016822;28;20041;-81
2021/05/03 06:06:30;;;;;;;2.72;2.40;;;;;;;4.74;84.95;101156.50;5026130;28;20029;-81
2021/05/03 06:08:55;;;;;;;4.50;2.35;;;;;;;4.88;84.75;101161.03;5013232;28;20029;-81
2021/05/03 06:11:21;;;;;;;4.70;2.63;;;;;;;4.59;84.07;101152.91;5008986;28;20026;-82
2021/05/03 06:13:46;;;;;;;4.97;2.08;;;;;;;4.48;85.19;101158.84;5008313;28;20033;-82
2021/05/03 06:16:11;;;;;;;5.65;3.28;;;;;;;4.58;84.74;101156.50;5005347;28;20033;-82
2021/05/03 06:18:37;;;;;;;9.60;3.60;;;;;;;4.83;85.81;101161.28;5012923;28;20049;-82
2021/05/03 06:21:02;;;;;;;7.38;2.90;;;;;;;4.74;86.44;101161.81;5029545;28;20030;-82
2021/05/03 06:23:28;;;;;;;3.35;2.90;;;;;;;4.54;86.57;101150.50;4999542;28;20386;-83
2021/05/03 06:25:53;;;;;;;5.82;3.45;;;;;;;4.47;86.22;101153.59;5009112;28;20029;-82
2021/05/03 06:28:19;;;;;;;9.48;4.85;;;;;;;4.41;86.58;101153.94;5024998;28;20029;-83
2021/05/03 06:30:46;;;;;;;10.07;4.35;;;;;;;4.40;87.10;101157.56;5013654;28;20030;-83
2021/05/03 06:33:11;;;;;;;8.77;4.70;;;;;;;4.42;87.97;101155.66;5008870;28;20041;-83
2021/05/03 06:35:36;;;;;;;9.30;3.90;;;;;;;4.49;86.79;101157.03;5007382;28;20033;-82
2021/05/03 06:38:05;;;;;;;4.43;3.45;;;;;;;4.53;85.43;101153.25;5015133;28;20178;-83
2021/05/03 06:40:30;;;;;;;11.05;4.35;;;;;;;4.57;87.90;101152.16;4989600;28;20038;-83
2021/05/03 06:42:56;;;;;;;8.18;3.67;;;;;;;4.52;84.65;101152.38;5026591;28;20544;-83
2021/05/03 06:45:21;;;;;;;9.13;4.40;;;;;;;4.58;87.19;101146.72;5018025;28;20049;-84
2021/05/03 06:47:49;;;;;;;11.73;4.20;;;;;;;4.85;85.24;101159.41;5014482;28;20037;-83
2021/05/03 06:50:15;;;;;;;14.88;5.32;;;;;;;5.05;83.73;101152.91;5015250;28;20068;-83
2021/05/03 06:52:41;;;;;;;9.13;3.10;;;;;;;5.26;80.58;101151.66;5016602;28;20029;-84
2021/05/03 06:55:07;;;;;;;3.85;1.98;;;;;;;5.45;79.60;101159.41;5010744;28;20513;-83
2021/05/03 06:57:33;;;;;;;8.85;2.50;;;;;;;5.74;77.25;101146.09;5013962;28;20029;-83
2021/05/03 06:59:59;;;;;;;6.55;2.28;;;;;;;6.07;76.51;101155.66;5020285;28;20109;-83
2021/05/03 07:02:24;;;;;;;5.57;1.50;;;;;;;6.30;74.90;101151.50;5013363;28;20087;-83
2021/05/03 07:04:50;;;;;;;2.88;1.85;;;;;;;6.42;74.11;101148.03;5015095;28;20428;-83
2021/05/03 07:07:16;;;;;;;4.35;2.25;;;;;;;6.33;72.62;101148.63;5013573;28;20033;-83
2021/05/03 07:09:45;;;;;;;4.97;2.65;;;;;;;6.49;70.79;101149.38;5022776;28;20033;-83
2021/05/03 07:12:11;;;;;;;4.35;1.58;;;;;;;6.42;74.04;101148.03;5014010;28;20021;-83
2021/05/03 07:14:36;;;;;;;2.72;1.58;;;;;;;6.40;73.78;101144.63;5018363;28;20040;-84
2021/05/03 07:17:04;;;;;;;9.02;3.00;;;;;;;6.29;73.82;101147.97;5024393;28;20413;-84
2021/05/03 07:19:31;;;;;;;5.47;2.13;;;;;;;6.24;74.65;101150.06;5015533;28;20417;-83
2021/05/03 07:21:57;;;;;;;2.25;1.70;;;;;;;6.23;72.03;101145.69;5009195;28;20030;-83
2021/05/03 07:24:22;;;;;;;2.88;1.40;;;;;;;6.08;72.16;101162.69;5015578;28;20421;-83
2021/05/03 07:26:48;;;;;;;2.65;1.45;;;;;;;5.84;74.88;101151.69;5031941;28;20025;-83
2021/05/03 07:29:13;;;;;;;2.33;1.27;;;;;;;5.62;74.99;101153.03;5021496;28;20024;-83
2021/05/03 07:31:39;;;;;;;5.70;1.27;;;;;;;5.41;72.87;101159.66;5010970;28;20034;-83
2021/05/03 07:34:04;;;;;;;3.08;1.33;;;;;;;5.30;77.00;101158.50;5007361;28;20033;-83
2021/05/03 07:36:29;;;;;;;2.95;1.42;;;;;;;5.05;77.69;101159.13;5023267;28;20029;-83
2021/05/03 07:38:55;;;;;;;2.85;1.92;;;;;;;4.89;79.76;101157.41;5035259;28;20515;-83
2021/05/03 07:41:20;;;;;;;4.43;1.58;;;;;;;4.83;77.60;101162.13;5011102;28;20041;-83
2021/05/03 07:43:45;;;;;;;3.88;1.75;;;;;;;4.95;78.27;101163.25;5010041;28;20044;-83
2021/05/03 07:46:11;;;;;;;7.65;1.77;;;;;;;5.12;77.68;101156.94;5023784;28;20048;-82
2021/05/03 07:48:36;;;;;;;8.15;2.17;;;;;;;5.40;76.09;101145.47;5025301;28;20065;-76
2021/05/03 07:51:03;;;;;;;9.65;2.10;;;;;;;5.91;75.43;101137.91;5019429;28;20029;-75
2021/05/03 07:53:29;;;;;;;6.32;1.80;;;;;;;6.69;74.16;101140.06;5017626;28;20437;-83
2021/05/03 07:55:54;;;;;;;4.15;1.65;;;;;;;7.06;72.50;101137.59;5010548;28;20056;-83
2021/05/03 07:58:19;;;;;;;4.13;1.50;;;;;;;6.76;72.06;101140.50;5031511;28;20025;-83
2021/05/03 08:00:47;;;;;;;3.95;2.53;;;;;;;6.45;74.36;101145.16;5007552;28;20034;-82
2021/05/03 08:03:12;;;;;;;2.47;1.25;;;;;;;6.07;71.17;101136.97;5025624;28;20113;-82
2021/05/03 08:05:37;;;;;;;3.90;1.30;;;;;;;5.75;71.76;101140.66;5013050;28;20164;-82
2021/05/03 08:08:04;;;;;;;4.45;1.50;;;;;;;5.64;72.17;101144.94;4996163;28;20038;-82
2021/05/03 08:10:29;;;;;;;1.98;1.10;;;;;;;5.75;71.76;101139.78;5007681;28;20096;-82
2021/05/03 08:12:54;;;;;;;4.55;1.60;;;;;;;6.24;70.47;101133.19;5014044;28;20489;-82
2021/05/03 08:15:22;;;;;;;5.32;1.90;;;;;;;7.05;68.69;101135.88;5013952;28;20046;-82
2021/05/03 08:17:48;;;;;;;2.65;1.60;;;;;;;7.66;64.16;101136.19;5011664;28;20033;-82
2021/05/03 08:20:15;;;;;;;6.30;1.88;;;;;;;8.03;61.50;101137.09;5002373;28;20052;-84
2021/05/03 08:22:41;;;;;;;7.00;1.40;;;;;;;7.98;60.83;101147.28;4994330;28;20034;-84
2021/05/03 08:25:08;;;;;;;3.92;1.00;;;;;;;8.01;57.14;101137.19;4999790;28;20032;-83
2021/05/03 08:27:35;;;;;;;7.60;1.35;;;;;;;7.95;59.62;101143.00;5021355;28;20038;-84
2021/05/03 08:30:00;;;;;;;5.75;1.88;;;;;;;8.27;57.84;101140.69;5000307;28;20485;-83
2021/05/03 08:32:26;;;;;;;2.17;1.33;;;;;;;8.44;57.54;101152.88;5012613;28;20116;-82
2021/05/03 08:34:51;;;;;;;3.33;1.30;;;;;;;8.71;58.98;101144.66;5016251;28;20037;-82
2021/05/03 08:37:17;;;;;;;4.13;1.33;;;;;;;9.00;59.37;101144.31;5020945;28;20489;-81
2021/05/03 08:39:43;;;;;;;5.15;1.55;;;;;;;8.78;60.09;101139.69;5012334;28;20486;-81
2021/05/03 08:42:09;;;;;;;3.38;1.40;;;;;;;8.36;60.97;101143.69;5026512;28;20033;-81
2021/05/03 08:44:35;;;;;;;3.22;1.10;;;;;;;7.91;60.17;101148.69;5015833;28;20041;-81
2021/05/03 08:47:00;;;;;;;5.30;1.25;;;;;;;7.51;61.14;101140.78;5018957;28;20496;-81
2021/05/03 08:52:15;;;;;;;4.00;1.13;;;;;;;7.00;63.81;101146.03;5023953;28;20112;-82
2021/05/03 08:54:41;;;;;;;2.13;1.58;;;;;;;6.94;64.03;101152.63;5036240;28;20083;-82
2021/05/03 08:57:09;;;;;;;3.00;1.60;;;;;;;7.06;65.81;101148.28;5014857;28;20424;-81
2021/05/03 08:59:36;;;;;;;4.00;1.50;;;;;;;7.41;61.83;101143.22;5020492;28;20088;-81
2021/05/03 09:02:03;;;;;;;6.53;1.65;;;;;;;7.89;59.36;101156.81;5008454;28;20037;-81
2021/05/03 09:04:29;;;;;;;4.85;1.50;;;;;;;8.08;59.00;101137.66;5034014;28;20033;-82
2021/05/03 09:07:01;;;;;;;3.40;1.38;;;;;;;8.20;58.76;101138.56;5016231;28;20048;-81
2021/05/03 09:09:46;;;;;;;1.98;1.58;;;;;;;8.39;58.05;101159.56;5002888;28;20056;-81
2021/05/03 09:12:14;;;;;;;5.82;1.98;;;;;;;8.59;60.22;101148.22;5019132;28;20501;-81
2021/05/03 09:14:56;;;;;;;7.03;1.40;;;;;;;8.90;57.19;101151.31;5030666;28;20485;-80
2021/05/03 09:17:33;;;;;;;2.35;1.13;;;;;;;9.39;55.87;101137.69;4999834;28;20043;-84
2021/05/03 09:20:01;;;;;;;4.82;1.50;;;;;;;9.45;55.87;101136.38;5019650;28;20557;-80
2021/05/03 09:22:37;;;;;;;2.25;1.20;;;;;;;9.23;54.29;101144.38;5014474;28;20029;-82
2021/05/03 09:25:26;;;;;;;4.10;1.20;;;;;;;8.63;56.96;101135.44;4997049;28;20029;-73
2021/05/03 09:28:07;;;;;;;5.57;1.70;;;;;;;8.20;58.31;101154.63;5019378;28;20034;-79
2021/05/03 09:30:44;;;;;;;6.20;1.50;;;;;;;8.21;59.91;101138.47;5011325;28;20030;-79
2021/05/03 09:33:28;;;;;;;5.38;2.00;;;;;;;8.21;58.54;101125.06;5011672;28;20124;-79
2021/05/03 09:36:07;;;;;;;5.00;1.48;;;;;;;8.26;56.88;101135.44;5013393;28;20065;-78
2021/05/03 09:38:43;;;;;;;3.15;1.27;;;;;;;8.24;57.83;101142.75;5000935;28;20044;-78
2021/05/03 09:41:29;;;;;;;3.08;1.60;;;;;;;8.07;61.73;101136.75;4999868;28;20466;-79
2021/05/03 09:44:04;;;;;;;5.03;1.52;;;;;;;7.75;62.81;101140.88;5024661;28;20033;-80
2021/05/03 09:46:32;;;;;;;4.60;1.58;;;;;;;7.53;64.65;101141.50;5028486;28;20037;-80
2021/05/03 09:49:08;;;;;;;3.78;1.88;;;;;;;7.42;64.22;101138.72;5028568;28;20095;-80
2021/05/03 09:51:35;;;;;;;2.13;1.40;;;;;;;7.27;67.90;101128.13;5006512;28;20112;-80
2021/05/03 09:54:16;;;;;;;2.55;1.45;;;;;;;7.26;67.54;101137.09;4996087;28;20052;-80
2021/05/03 09:56:47;;;;;;;2.50;1.90;;;;;;;7.23;68.50;101126.63;5023580;28;20494;-80
2021/05/03 09:59:25;;;;;;;2.65;1.50;;;;;;;6.96;67.96;101121.31;5007510;28;20044;-80
2021/05/03 10:02:28;;;;;;;3.55;1.50;;;;;;;7.01;67.12;101127.22;5024210;28;20474;-80
2021/05/03 10:05:00;;;;;;;2.92;1.40;;;;;;;7.30;66.18;101113.69;5011290;28;20060;-80
2021/05/03 10:07:27;;;;;;;4.75;1.50;;;;;;;7.80;63.04;101112.81;5025811;28;20037;-79
2021/05/03 10:10:00;;;;;;;3.67;1.77;;;;;;;8.65;61.62;101110.25;5034020;28;20063;-79
2021/05/03 10:12:27;;;;;;;2.67;1.48;;;;;;;9.43;56.14;101122.25;4995242;28;20124;-80
2021/05/03 10:14:56;;;;;;;4.53;1.65;;;;;;;9.48;54.69;101103.06;4998825;28;20049;-79
2021/05/03 10:17:21;;;;;;;2.70;1.10;;;;;;;9.63;55.94;101099.19;4998928;28;20104;-80
2021/05/03 10:19:48;;;;;;;1.70;1.10;;;;;;;9.72;53.50;101113.72;5012614;28;20108;-80
2021/05/03 10:22:22;;;;;;;2.42;0.95;;;;;;;9.77;52.79;101092.75;5007813;28;20036;-79
2021/05/03 10:24:54;;;;;;;3.50;1.45;;;;;;;10.11;51.03;101097.09;5015521;28;20409;-79
2021/05/03 10:27:21;;;;;;;2.13;1.33;;;;;;;10.26;53.31;101095.03;5022937;28;20112;-79
2021/05/03 10:29:47;;;;;;;3.25;1.75;;;;;;;10.27;53.80;101093.19;5018442;28;20033;-79
2021/05/03 10:32:20;;;;;;;2.90;1.50;;;;;;;10.38;53.17;101095.88;5009136;28;20025;-81
2021/05/03 10:34:47;;;;;;;5.43;1.52;;;;;;;9.87;53.64;101089.19;5018950;28;20556;-80
2021/05/03 10:37:32;;;;;;;2.38;1.20;;;;;;;9.86;53.79;101084.78;5030597;28;20042;-80
2021/05/03 10:40:00;;;;;;;5.70;1.55;;;;;;;10.33;51.73;101101.63;5009766;28;20033;-80
2021/05/03 10:42:26;;;;;;;1.55;1.35;;;;;;;10.84;51.50;101091.22;5021200;28;20542;-80
2021/05/03 10:47:46;;;;;;;2.58;1.30;;;;;;;11.31;49.57;101087.16;5022368;28;20431;-79
2021/05/03 10:50:48;;;;;;;2.42;1.67;;;;;;;11.08;52.24;101091.81;5022703;28;20462;-80
2021/05/03 10:53:25;;;;;;;3.97;1.40;;;;;;;10.66;50.95;101091.75;5008833;28;20525;-80
2021/05/03 10:55:55;;;;;;;2.08;1.30;;;;;;;10.85;51.92;101085.69;5000590;28;20057;-80
2021/05/03 10:58:21;;;;;;;3.70;1.58;;;;;;;11.18;49.62;101087.34;5001385;28;20056;-80
2021/05/03 11:00:59;;;;;;;3.97;1.30;;;;;;;10.76;49.96;101094.53;5023614;28;20034;-80
2021/05/03 11:04:02;;;;;;;6.53;1.70;;;;;;;9.99;50.68;101100.78;5033191;28;20494;-80
2021/05/03 11:06:36;;;;;;;2.30;1.15;;;;;;;10.41;52.90;101087.56;4977323;28;20042;-80
2021/05/03 11:09:30;;;;;;;5.40;1.70;;;;;;;10.71;49.98;101072.53;5011019;28;20112;-80
2021/05/03 11:12:01;;;;;;;1.20;1.10;;;;;;;10.61;50.32;101075.13;5030478;28;20033;-80
2021/05/03 11:14:30;;;;;;;2.53;1.33;;;;;;;10.80;49.92;101080.72;5006197;28;20057;-80
2021/05/03 11:17:08;;;;;;;3.40;1.70;;;;;;;10.96;47.57;101084.78;5012571;28;20046;-80
2021/05/03 11:20:37;;;;;;;4.60;1.83;;;;;;;11.21;48.50;101084.41;5016397;28;20061;-80
2021/05/03 11:22:47;;;;;;;5.78;1.42;;;;;;;10.84;47.48;101088.53;5004578;28;20485;-80
2021/05/03 11:25:23;;;;;;;2.97;1.30;;;;;;;10.69;49.34;101091.50;5004590;28;20144;-80
2021/05/03 11:32:59;;;;;;;2.80;1.45;;;;;;;10.78;47.79;101087.19;5018978;28;20053;-79
2021/05/03 11:35:36;;;;;;;2.33;1.40;;;;;;;10.71;48.20;101097.63;5027058;28;20026;-79
2021/05/03 11:38:39;;;;;;;2.78;1.50;;;;;;;10.54;49.52;101087.41;5001378;28;20034;-79
2021/05/03 11:41:16;;;;;;;8.23;2.10;;;;;;;9.97;49.56;101089.28;5028012;28;20208;-79
2021/05/03 11:46:25;;;;;;;2.13;1.40;;;;;;;10.26;48.81;101095.03;5025288;28;20037;-79
2021/05/03 11:48:52;;;;;;;2.55;1.15;;;;;;;10.41;48.63;101086.69;5015468;28;20091;-79
2021/05/03 11:51:17;;;;;;;2.05;1.30;;;;;;;10.79;46.84;101083.50;5017611;28;20029;-79
2021/05/03 11:53:44;;;;;;;2.97;1.40;;;;;;;10.57;48.16;101084.44;4998178;28;20523;-79
2021/05/03 11:56:23;;;;;;;2.58;1.63;;;;;;;10.64;49.83;101096.41;5011406;28;20037;-79
2021/05/03 11:58:52;;;;;;;3.55;1.98;;;;;;;11.03;48.03;101085.97;5010683;28;20553;-79
2021/05/03 12:01:18;;;;;;;6.25;1.42;;;;;;;11.07;47.53;101094.63;5018192;28;20037;-79
2021/05/03 12:03:45;;;;;;;4.93;1.42;;;;;;;11.09;47.01;101093.53;4997603;28;20040;-79
2021/05/03 12:06:38;;;;;;;3.58;1.50;;;;;;;10.81;47.31;101090.47;5011478;28;20026;-79